createdAt,value
2018-04-07T00:01:30.187Z,8.93
2018-04-07T00:03:59.075Z,8.88
2018-04-07T00:06:27.406Z,8.81
2018-04-07T00:08:55.837Z,8.86
2018-04-07T00:11:25.075Z,8.78
2018-04-07T00:13:54.085Z,8.75
2018-04-07T00:16:23.180Z,8.74
2018-04-07T00:18:51.783Z,8.67
2018-04-07T00:21:21.048Z,8.56
2018-04-07T00:23:49.379Z,8.57
2018-04-07T00:26:18.643Z,8.52
2018-04-07T00:28:47.456Z,8.66
2018-04-07T00:31:18.457Z,8.63
2018-04-07T00:33:47.246Z,8.57
2018-04-07T00:36:16.214Z,8.60
2018-04-07T00:38:45.327Z,8.59
2018-04-07T00:41:14.008Z,8.55
2018-04-07T00:43:44.023Z,8.51
2018-04-07T00:46:13.175Z,8.49
2018-04-07T00:48:42.434Z,8.49
2018-04-07T00:51:11.578Z,8.40
2018-04-07T00:53:40.724Z,8.55
2018-04-07T00:56:09.107Z,8.52
2018-04-07T00:58:38.691Z,8.40
2018-04-07T01:01:07.560Z,8.44
2018-04-07T01:03:36.640Z,8.41
2018-04-07T01:06:05.166Z,8.39
2018-04-07T01:08:34.202Z,8.48
2018-04-07T01:11:04.060Z,8.46
2018-04-07T01:13:34.182Z,8.41
2018-04-07T01:16:03.683Z,8.42
2018-04-07T01:18:32.065Z,8.49
2018-04-07T01:21:01.343Z,8.51
2018-04-07T01:23:30.082Z,8.48
2018-04-07T01:26:01.008Z,8.36
2018-04-07T01:28:31.278Z,8.29
2018-04-07T01:30:59.840Z,8.22
2018-04-07T01:33:28.810Z,8.28
2018-04-07T01:35:58.016Z,8.32
2018-04-07T01:38:27.248Z,8.30
2018-04-07T01:40:56.466Z,8.29
2018-04-07T01:43:24.864Z,8.19
2018-04-07T01:45:54.043Z,8.15
2018-04-07T01:48:23.526Z,8.15
2018-04-07T01:50:53.669Z,8.13
2018-04-07T01:53:22.928Z,8.17
2018-04-07T01:55:52.304Z,8.18
2018-04-07T01:58:21.288Z,8.22
2018-04-07T02:00:51.106Z,8.21
2018-04-07T02:03:20.476Z,8.09
2018-04-07T02:05:49.120Z,8.05
2018-04-07T02:08:18.648Z,7.98
2018-04-07T02:10:48.386Z,7.96
2018-04-07T02:13:17.648Z,7.95
2018-04-07T02:15:46.444Z,7.94
2018-04-07T02:18:14.755Z,7.93
2018-04-07T02:20:44.261Z,7.92
2018-04-07T02:23:15.010Z,7.85
2018-04-07T02:25:43.630Z,7.79
2018-04-07T02:28:12.987Z,7.54
2018-04-07T02:33:16.920Z,7.52
2018-04-07T02:35:45.896Z,7.62
2018-04-07T02:38:14.503Z,7.67
2018-04-07T02:40:44.688Z,7.70
2018-04-07T02:43:13.053Z,7.67
2018-04-07T02:45:42.457Z,7.59
2018-04-07T02:48:11.118Z,7.54
2018-04-07T02:50:39.897Z,7.52
2018-04-07T02:53:09.053Z,7.57
2018-04-07T02:55:37.948Z,7.57
2018-04-07T02:58:06.306Z,7.62
2018-04-07T03:00:36.527Z,7.65
2018-04-07T03:03:05.064Z,7.62
2018-04-07T03:05:34.831Z,7.66
2018-04-07T03:08:03.768Z,7.59
2018-04-07T03:10:33.368Z,7.46
2018-04-07T03:13:03.122Z,7.44
2018-04-07T03:15:33.200Z,7.56
2018-04-07T03:18:01.890Z,7.48
2018-04-07T03:20:31.125Z,7.53
2018-04-07T03:23:00.550Z,7.60
2018-04-07T03:25:29.498Z,7.51
2018-04-07T03:27:57.874Z,7.45
2018-04-07T03:30:26.261Z,6.86
2018-04-07T03:32:56.415Z,6.98
2018-04-07T03:35:25.667Z,7.07
2018-04-07T03:37:55.677Z,7.10
2018-04-07T03:40:25.080Z,7.13
2018-04-07T03:42:53.698Z,7.14
2018-04-07T03:45:24.640Z,6.83
2018-04-07T03:47:54.699Z,6.83
2018-04-07T03:50:23.422Z,6.83
2018-04-07T03:52:53.174Z,6.92
2018-04-07T03:55:22.324Z,6.94
2018-04-07T03:57:52.441Z,6.97
2018-04-07T04:00:21.695Z,6.86
2018-04-07T04:02:50.861Z,6.87
2018-04-07T04:05:19.320Z,6.86
2018-04-07T04:07:49.963Z,6.98
2018-04-07T04:10:19.117Z,6.92
2018-04-07T04:12:49.463Z,6.93
2018-04-07T04:15:17.855Z,6.77
2018-04-07T04:17:48.461Z,6.84
2018-04-07T04:20:16.841Z,6.81
2018-04-07T04:22:45.624Z,6.78
2018-04-07T04:25:15.645Z,6.64
2018-04-07T04:27:45.466Z,6.61
2018-04-07T04:30:14.148Z,6.46
2018-04-07T04:32:42.458Z,6.38
2018-04-07T04:35:10.902Z,6.33
2018-04-07T04:37:40.003Z,6.18
2018-04-07T04:40:09.135Z,6.17
2018-04-07T04:42:38.812Z,6.11
2018-04-07T04:45:09.280Z,6.13
2018-04-07T04:47:39.493Z,6.15
2018-04-07T04:50:08.643Z,6.24
2018-04-07T04:52:37.113Z,6.17
2018-04-07T04:55:05.638Z,6.19
2018-04-07T04:57:34.327Z,6.27
2018-04-07T05:00:03.085Z,6.13
2018-04-07T05:02:33.308Z,5.96
2018-04-07T05:05:02.402Z,6.04
2018-04-07T05:07:30.969Z,5.99
2018-04-07T05:09:59.934Z,6.00
2018-04-07T05:12:28.486Z,6.02
2018-04-07T05:14:57.763Z,5.98
2018-04-07T05:17:27.883Z,6.02
2018-04-07T05:19:57.651Z,6.03
2018-04-07T05:22:26.038Z,6.16
2018-04-07T05:24:54.356Z,6.26
2018-04-07T05:27:24.400Z,6.26
2018-04-07T05:29:53.680Z,6.29
2018-04-07T05:32:23.095Z,6.42
2018-04-07T05:34:52.242Z,6.42
2018-04-07T05:37:20.678Z,6.36
2018-04-07T05:39:49.129Z,6.46
2018-04-07T05:42:17.525Z,6.50
2018-04-07T05:44:47.729Z,6.61
2018-04-07T05:47:17.126Z,6.57
2018-04-07T05:49:47.344Z,6.59
2018-04-07T05:52:15.967Z,6.60
2018-04-07T05:54:45.829Z,6.66
2018-04-07T05:57:14.195Z,6.67
2018-04-07T05:59:42.793Z,6.73
2018-04-07T06:02:12.725Z,6.80
2018-04-07T06:04:41.184Z,6.85
2018-04-07T06:07:09.588Z,6.94
2018-04-07T06:09:39.693Z,6.86
2018-04-07T06:12:10.756Z,7.10
2018-04-07T06:14:40.132Z,7.07
2018-04-07T06:17:10.819Z,6.74
2018-04-07T06:19:39.454Z,6.67
2018-04-07T06:22:08.467Z,6.63
2018-04-07T06:24:37.112Z,6.80
2018-04-07T06:27:06.373Z,6.71
2018-04-07T06:29:36.509Z,7.02
2018-04-07T06:32:05.783Z,7.25
2018-04-07T06:34:35.960Z,7.44
2018-04-07T06:37:04.466Z,7.67
2018-04-07T06:39:33.253Z,7.86
2018-04-07T06:42:02.363Z,7.99
2018-04-07T06:44:30.915Z,8.17
2018-04-07T06:46:59.303Z,8.26
2018-04-07T06:49:30.246Z,8.48
2018-04-07T06:51:58.627Z,8.52
2018-04-07T06:54:26.990Z,8.78
2018-04-07T06:56:55.611Z,8.83
2018-04-07T06:59:25.817Z,8.92
2018-04-07T07:01:54.205Z,9.07
2018-04-07T07:04:23.531Z,9.14
2018-04-07T07:06:52.159Z,9.38
2018-04-07T07:09:21.437Z,9.50
2018-04-07T07:11:50.148Z,9.55
2018-04-07T07:14:19.469Z,9.59
2018-04-07T07:16:47.935Z,9.75
2018-04-07T07:19:16.730Z,9.90
2018-04-07T07:21:46.064Z,9.85
2018-04-07T07:24:15.372Z,10.03
2018-04-07T07:26:44.133Z,10.19
2018-04-07T07:29:12.547Z,10.24
2018-04-07T07:31:41.280Z,10.22
2018-04-07T07:34:10.048Z,10.40
2018-04-07T07:36:38.427Z,10.64
2018-04-07T07:39:07.003Z,10.66
2018-04-07T07:41:35.807Z,10.63
2018-04-07T07:44:06.228Z,10.70
2018-04-07T07:46:34.574Z,10.96
2018-04-07T07:49:03.744Z,11.03
2018-04-07T07:51:33.710Z,11.12
2018-04-07T07:54:02.038Z,11.11
2018-04-07T07:56:31.730Z,11.29
2018-04-07T07:59:00.915Z,11.22
2018-04-07T08:01:29.776Z,11.53
2018-04-07T08:03:59.982Z,11.67
2018-04-07T08:06:30.682Z,11.74
2018-04-07T08:09:01.158Z,11.78
2018-04-07T08:11:29.561Z,11.80
2018-04-07T08:13:58.828Z,11.89
2018-04-07T08:16:27.527Z,11.91
2018-04-07T08:18:56.719Z,11.82
2018-04-07T08:21:25.337Z,11.81
2018-04-07T08:23:54.029Z,12.08
2018-04-07T08:26:27.220Z,12.08
2018-04-07T08:28:55.668Z,12.19
2018-04-07T08:31:24.137Z,12.37
2018-04-07T08:33:58.179Z,12.53
2018-04-07T08:36:30.093Z,12.71
2018-04-07T08:38:59.279Z,12.73
2018-04-07T08:41:28.971Z,12.83
2018-04-07T08:43:58.250Z,12.87
2018-04-07T08:46:28.202Z,12.86
2018-04-07T08:48:57.262Z,12.85
2018-04-07T08:51:26.020Z,12.72
2018-04-07T08:53:54.429Z,12.83
2018-04-07T08:56:22.857Z,13.16
2018-04-07T08:58:52.173Z,13.18
2018-04-07T09:01:21.712Z,13.45
2018-04-07T09:03:52.001Z,13.74
2018-04-07T09:06:20.469Z,14.04
2018-04-07T09:08:50.015Z,13.97
2018-04-07T09:11:18.708Z,14.05
2018-04-07T09:13:48.330Z,14.18
2018-04-07T09:16:18.103Z,14.24
2018-04-07T09:18:48.857Z,14.34
2018-04-07T09:21:18.101Z,14.26
2018-04-07T09:23:47.239Z,14.76
2018-04-07T09:26:16.084Z,15.07
2018-04-07T09:28:46.567Z,15.07
2018-04-07T09:31:21.258Z,15.50
2018-04-07T09:33:50.000Z,15.54
2018-04-07T09:36:19.571Z,15.54
2018-04-07T09:38:48.585Z,15.80
2018-04-07T09:41:16.962Z,15.92
2018-04-07T09:43:46.827Z,15.73
2018-04-07T09:46:15.211Z,15.67
2018-04-07T09:48:44.137Z,15.52
2018-04-07T09:51:13.762Z,15.88
2018-04-07T09:53:42.157Z,16.10
2018-04-07T09:56:10.531Z,16.37
2018-04-07T09:58:38.880Z,16.04
2018-04-07T10:01:08.325Z,16.60
2018-04-07T10:03:40.404Z,16.64
2018-04-07T10:06:10.206Z,16.83
2018-04-07T10:08:38.612Z,17.38
2018-04-07T10:11:06.993Z,17.41
2018-04-07T10:13:35.760Z,17.34
2018-04-07T10:16:04.995Z,17.44
2018-04-07T10:18:35.285Z,17.53
2018-04-07T10:21:04.776Z,17.60
2018-04-07T10:23:34.946Z,17.83
2018-04-07T10:26:04.597Z,18.09
2018-04-07T10:28:33.954Z,17.83
2018-04-07T10:31:02.333Z,17.77
2018-04-07T10:33:31.517Z,17.76
2018-04-07T10:36:00.679Z,18.23
2018-04-07T10:38:29.440Z,18.42
2018-04-07T10:40:58.939Z,18.67
2018-04-07T10:43:27.302Z,18.27
2018-04-07T10:45:59.386Z,18.63
2018-04-07T10:48:31.793Z,18.68
2018-04-07T10:51:02.472Z,18.89
2018-04-07T10:53:32.859Z,18.76
2018-04-07T10:56:01.206Z,19.01
2018-04-07T10:58:31.241Z,19.34
2018-04-07T11:00:59.983Z,19.07
2018-04-07T11:03:29.432Z,18.99
2018-04-07T11:05:58.158Z,19.31
2018-04-07T11:08:28.604Z,19.47
2018-04-07T11:10:57.702Z,18.12
2018-04-07T11:13:27.674Z,19.10
2018-04-07T11:18:30.624Z,19.89
2018-04-07T11:21:00.207Z,19.95
2018-04-07T11:23:29.858Z,19.50
2018-04-07T11:25:58.445Z,20.28
2018-04-07T11:28:28.091Z,20.40
2018-04-07T11:30:59.054Z,20.41
2018-04-07T11:33:27.688Z,20.56
2018-04-07T11:35:59.808Z,20.54
2018-04-07T11:38:28.212Z,20.09
2018-04-07T11:40:56.600Z,20.49
2018-04-07T11:43:25.044Z,20.20
2018-04-07T11:45:53.873Z,20.00
2018-04-07T11:48:23.184Z,20.67
2018-04-07T11:50:52.436Z,19.81
2018-04-07T11:53:22.283Z,20.56
2018-04-07T11:55:50.696Z,20.97
2018-04-07T11:58:19.077Z,21.54
2018-04-07T12:00:47.773Z,21.53
2018-04-07T12:03:16.962Z,22.01
2018-04-07T12:05:45.343Z,21.92
2018-04-07T12:08:13.824Z,21.54
2018-04-07T12:10:42.199Z,20.30
2018-04-07T12:13:10.598Z,21.27
2018-04-07T12:15:39.018Z,21.24
2018-04-07T12:18:08.037Z,21.68
2018-04-07T12:20:36.358Z,22.46
2018-04-07T12:23:05.895Z,22.23
2018-04-07T12:25:35.057Z,22.63
2018-04-07T12:28:03.828Z,22.16
2018-04-07T12:30:33.059Z,21.98
2018-04-07T12:33:02.803Z,22.08
2018-04-07T12:35:32.150Z,22.06
2018-04-07T12:38:01.058Z,22.03
2018-04-07T12:40:30.575Z,21.42
2018-04-07T12:42:58.980Z,21.11
2018-04-07T12:45:28.635Z,22.59
2018-04-07T12:47:58.079Z,22.68
2018-04-07T12:50:26.689Z,23.12
2018-04-07T12:52:55.815Z,22.81
2018-04-07T12:55:26.083Z,22.91
2018-04-07T12:57:55.952Z,22.53
2018-04-07T13:00:25.819Z,23.05
2018-04-07T13:02:54.198Z,22.39
2018-04-07T13:05:23.735Z,22.47
2018-04-07T13:07:52.630Z,22.81
2018-04-07T13:10:21.811Z,23.21
2018-04-07T13:12:50.320Z,22.50
2018-04-07T13:15:18.693Z,22.45
2018-04-07T13:17:47.952Z,22.53
2018-04-07T13:20:16.275Z,22.75
2018-04-07T13:22:45.634Z,22.92
2018-04-07T13:25:14.301Z,23.71
2018-04-07T13:27:43.409Z,23.09
2018-04-07T13:30:12.028Z,24.31
2018-04-07T13:32:40.844Z,24.02
2018-04-07T13:35:11.535Z,23.46
2018-04-07T13:37:40.695Z,23.66
2018-04-07T13:40:09.909Z,23.84
2018-04-07T13:42:38.332Z,24.16
2018-04-07T13:45:06.689Z,24.09
2018-04-07T13:47:39.144Z,24.31
2018-04-07T13:50:09.061Z,24.16
2018-04-07T13:52:37.814Z,24.17
2018-04-07T13:55:06.369Z,24.24
2018-04-07T13:57:34.983Z,24.71
2018-04-07T14:00:04.200Z,24.51
2018-04-07T14:02:33.619Z,24.96
2018-04-07T14:05:03.003Z,24.05
2018-04-07T14:07:32.218Z,24.23
2018-04-07T14:10:04.879Z,23.38
2018-04-07T14:12:33.417Z,24.03
2018-04-07T14:15:02.525Z,24.31
2018-04-07T14:17:30.927Z,24.31
2018-04-07T14:20:00.841Z,25.06
2018-04-07T14:22:30.394Z,24.51
2018-04-07T14:25:00.353Z,24.61
2018-04-07T14:27:28.854Z,24.64
2018-04-07T14:29:57.288Z,23.65
2018-04-07T14:32:28.166Z,23.56
2018-04-07T14:34:57.506Z,24.59
2018-04-07T14:37:25.852Z,24.61
2018-04-07T14:39:58.272Z,24.26
2018-04-07T14:42:27.390Z,24.40
2018-04-07T14:44:56.656Z,24.41
2018-04-07T14:47:25.081Z,24.38
2018-04-07T14:49:53.466Z,24.97
2018-04-07T14:52:22.726Z,24.92
2018-04-07T14:54:51.085Z,25.02
2018-04-07T14:57:19.541Z,25.10
2018-04-07T14:59:47.941Z,25.60
2018-04-07T15:02:16.330Z,25.99
2018-04-07T15:04:44.714Z,25.69
2018-04-07T15:07:13.046Z,26.21
2018-04-07T15:09:41.396Z,26.29
2018-04-07T15:12:09.776Z,25.73
2018-04-07T15:14:39.136Z,25.66
2018-04-07T15:17:08.417Z,25.58
2018-04-07T15:19:37.604Z,25.76
2018-04-07T15:22:07.446Z,25.84
2018-04-07T15:24:36.854Z,25.86
2018-04-07T15:27:06.072Z,26.10
2018-04-07T15:29:34.841Z,26.41
2018-04-07T15:32:04.080Z,26.50
2018-04-07T15:34:33.336Z,26.46
2018-04-07T15:37:01.748Z,26.86
2018-04-07T15:39:30.350Z,27.41
2018-04-07T15:41:59.294Z,27.01
2018-04-07T15:44:28.074Z,27.23
2018-04-07T15:46:58.123Z,26.96
2018-04-07T15:49:26.539Z,27.24
2018-04-07T15:51:56.339Z,26.94
2018-04-07T15:54:25.485Z,27.38
2018-04-07T15:56:54.737Z,27.69
2018-04-07T15:59:25.920Z,27.18
2018-04-07T16:01:55.884Z,27.40
2018-04-07T16:04:24.607Z,27.71
2018-04-07T16:06:53.824Z,27.69
2018-04-07T16:09:22.629Z,28.01
2018-04-07T16:11:51.797Z,28.40
2018-04-07T16:14:21.008Z,28.51
2018-04-07T16:16:50.538Z,28.19
2018-04-07T16:19:19.397Z,27.97
2018-04-07T16:21:47.729Z,28.01
2018-04-07T16:24:16.092Z,28.12
2018-04-07T16:26:45.955Z,28.05
2018-04-07T16:29:17.413Z,28.43
2018-04-07T16:31:46.219Z,28.20
2018-04-07T16:34:14.662Z,28.42
2018-04-07T16:36:43.619Z,28.97
2018-04-07T16:39:12.007Z,29.44
2018-04-07T16:41:42.057Z,28.80
2018-04-07T16:44:10.455Z,29.13
2018-04-07T16:46:39.706Z,28.86
2018-04-07T16:49:08.775Z,28.60
2018-04-07T16:51:38.829Z,28.22
2018-04-07T16:54:08.299Z,28.11
2018-04-07T16:56:37.451Z,28.40
2018-04-07T16:59:07.167Z,28.88
2018-04-07T17:01:35.549Z,27.79
2018-04-07T17:04:04.843Z,29.00
2018-04-07T17:06:33.164Z,29.14
2018-04-07T17:09:02.852Z,28.78
2018-04-07T17:11:31.727Z,29.42
2018-04-07T17:14:01.029Z,29.24
2018-04-07T17:16:30.436Z,29.38
2018-04-07T17:18:58.822Z,29.13
2018-04-07T17:21:28.095Z,29.06
2018-04-07T17:23:56.488Z,29.03
2018-04-07T17:26:26.115Z,28.82
2018-04-07T17:28:54.514Z,28.20
2018-04-07T17:31:23.320Z,28.13
2018-04-07T17:33:51.802Z,27.75
2018-04-07T17:36:21.384Z,27.40
2018-04-07T17:38:51.277Z,26.89
2018-04-07T17:41:19.614Z,26.27
2018-04-07T17:43:48.007Z,26.04
2018-04-07T17:46:16.346Z,25.99
2018-04-07T17:48:44.763Z,25.77
2018-04-07T17:51:13.781Z,25.30
2018-04-07T17:53:42.585Z,25.03
2018-04-07T17:56:11.808Z,24.65
2018-04-07T17:58:41.202Z,24.16
2018-04-07T18:01:09.652Z,23.56
2018-04-07T18:03:39.532Z,23.05
2018-04-07T18:06:10.846Z,22.80
2018-04-07T18:08:39.992Z,22.47
2018-04-07T18:11:10.629Z,22.29
2018-04-07T18:13:39.002Z,21.99
2018-04-07T18:16:08.249Z,21.63
2018-04-07T18:18:36.594Z,21.38
2018-04-07T18:21:05.211Z,21.25
2018-04-07T18:23:35.452Z,21.24
2018-04-07T18:26:04.998Z,21.23
2018-04-07T18:28:33.852Z,21.11
2018-04-07T18:31:02.529Z,21.01
2018-04-07T18:33:31.583Z,20.85
2018-04-07T18:35:59.950Z,20.77
2018-04-07T18:38:28.325Z,20.72
2018-04-07T18:40:57.616Z,20.56
2018-04-07T18:43:26.268Z,20.31
2018-04-07T18:45:56.896Z,20.26
2018-04-07T18:48:25.324Z,20.14
2018-04-07T18:50:55.190Z,20.03
2018-04-07T18:53:24.729Z,19.69
2018-04-07T18:55:54.915Z,19.53
2018-04-07T18:58:23.272Z,19.45
2018-04-07T19:00:52.348Z,19.45
2018-04-07T19:03:20.737Z,19.42
2018-04-07T19:05:49.516Z,19.43
2018-04-07T19:08:19.943Z,19.46
2018-04-07T19:10:48.997Z,19.38
2018-04-07T19:13:18.599Z,19.25
2018-04-07T19:15:46.953Z,19.29
2018-04-07T19:18:16.938Z,19.25
2018-04-07T19:20:45.621Z,19.25
2018-04-07T19:23:14.719Z,19.16
2018-04-07T19:25:44.877Z,19.09
2018-04-07T19:28:13.335Z,19.07
2018-04-07T19:30:41.717Z,19.05
2018-04-07T19:33:10.708Z,18.81
2018-04-07T19:35:39.887Z,18.94
2018-04-07T19:38:08.956Z,18.80
2018-04-07T19:40:37.310Z,18.59
2018-04-07T19:43:06.685Z,18.60
2018-04-07T19:45:35.037Z,18.51
2018-04-07T19:48:04.206Z,18.41
2018-04-07T19:50:34.323Z,18.37
2018-04-07T19:53:03.391Z,18.36
2018-04-07T19:55:34.282Z,18.20
2018-04-07T19:58:03.672Z,18.18
2018-04-07T20:00:32.874Z,18.15
2018-04-07T20:03:01.290Z,18.14
2018-04-07T20:05:30.732Z,18.06
2018-04-07T20:07:59.100Z,18.04
2018-04-07T20:10:28.323Z,18.01
2018-04-07T20:12:56.709Z,18.02
2018-04-07T20:15:25.181Z,17.88
2018-04-07T20:17:54.400Z,17.85
2018-04-07T20:20:25.495Z,17.65
2018-04-07T20:22:54.488Z,17.54
2018-04-07T20:25:22.874Z,17.50
2018-04-07T20:27:52.130Z,17.32
2018-04-07T20:30:22.712Z,17.39
2018-04-07T20:32:53.404Z,17.23
2018-04-07T20:35:21.818Z,17.17
2018-04-07T20:37:51.711Z,16.94
2018-04-07T20:40:20.917Z,16.91
2018-04-07T20:42:50.475Z,16.95
2018-04-07T20:45:19.451Z,17.01
2018-04-07T20:47:48.420Z,17.13
2018-04-07T20:50:16.807Z,17.06
2018-04-07T20:52:45.276Z,16.80
2018-04-07T20:55:13.716Z,16.70
2018-04-07T20:57:42.632Z,16.65
2018-04-07T21:00:10.987Z,16.78
2018-04-07T21:02:40.822Z,16.78
2018-04-07T21:05:09.788Z,16.81
2018-04-07T21:07:38.892Z,16.77
2018-04-07T21:10:07.253Z,16.39
2018-04-07T21:12:35.591Z,16.30
2018-04-07T21:15:04.701Z,16.14
2018-04-07T21:17:34.645Z,16.01
2018-04-07T21:20:02.998Z,15.99
2018-04-07T21:22:32.717Z,15.91
2018-04-07T21:25:02.661Z,15.96
2018-04-07T21:27:31.055Z,15.94
2018-04-07T21:30:00.329Z,15.86
2018-04-07T21:32:29.608Z,15.95
2018-04-07T21:34:58.019Z,15.93
2018-04-07T21:37:26.778Z,15.95
2018-04-07T21:39:55.149Z,15.91
2018-04-07T21:42:23.518Z,15.87
2018-04-07T21:44:54.220Z,15.73
2018-04-07T21:47:23.397Z,15.46
2018-04-07T21:49:51.755Z,15.39
2018-04-07T21:52:21.447Z,15.45
2018-04-07T21:54:51.243Z,15.53
2018-04-07T21:57:20.771Z,15.27
2018-04-07T21:59:49.900Z,15.25
2018-04-07T22:02:18.462Z,15.18
2018-04-07T22:04:47.696Z,15.08
2018-04-07T22:07:18.180Z,15.14
2018-04-07T22:09:46.630Z,15.00
2018-04-07T22:12:16.014Z,15.03
2018-04-07T22:14:45.155Z,15.02
2018-04-07T22:17:14.643Z,14.82
2018-04-07T22:19:44.263Z,14.80
2018-04-07T22:22:13.639Z,14.78
2018-04-07T22:24:42.075Z,14.86
2018-04-07T22:27:10.860Z,14.76
2018-04-07T22:29:41.684Z,14.76
2018-04-07T22:32:10.837Z,14.79
2018-04-07T22:34:41.527Z,14.86
2018-04-07T22:37:09.859Z,14.73
2018-04-07T22:39:38.282Z,14.74
2018-04-07T22:42:07.292Z,14.86
2018-04-07T22:44:35.719Z,14.62
2018-04-07T22:47:06.264Z,14.61
2018-04-07T22:49:35.906Z,14.45
2018-04-07T22:52:05.495Z,14.40
2018-04-07T22:54:35.049Z,14.30
2018-04-07T22:57:03.460Z,14.20
2018-04-07T22:59:33.165Z,14.10
2018-04-07T23:02:03.251Z,14.17
2018-04-07T23:04:31.615Z,14.06
2018-04-07T23:06:59.942Z,14.02
2018-04-07T23:09:29.532Z,13.99
2018-04-07T23:11:57.910Z,13.93
2018-04-07T23:14:26.303Z,13.94
2018-04-07T23:16:55.484Z,13.83
2018-04-07T23:19:24.753Z,13.57
2018-04-07T23:21:53.900Z,13.67
2018-04-07T23:24:22.262Z,13.68
2018-04-07T23:26:50.648Z,13.51
2018-04-07T23:29:21.848Z,13.57
2018-04-07T23:31:50.840Z,13.63
2018-04-07T23:34:21.002Z,13.58
2018-04-07T23:36:49.451Z,13.57
2018-04-07T23:39:18.484Z,13.51
2018-04-07T23:41:48.018Z,13.44
2018-04-07T23:44:18.170Z,13.51
2018-04-07T23:46:46.742Z,13.60
2018-04-07T23:49:15.074Z,13.60
2018-04-07T23:51:44.818Z,13.63
2018-04-07T23:54:13.449Z,13.64
2018-04-07T23:56:42.191Z,13.63
2018-04-07T23:59:12.581Z,13.37
